createdAt,value
2022-12-11T00:00:43.295Z,92
2022-12-11T00:01:53.419Z,91.8
2022-12-11T00:03:03.520Z,91.7
2022-12-11T00:04:13.649Z,91.7
2022-12-11T00:05:23.762Z,91
2022-12-11T00:06:34.122Z,90.2
2022-12-11T00:07:44.006Z,89.5
2022-12-11T00:08:54.120Z,89.8
2022-12-11T00:10:04.479Z,89.9
2022-12-11T00:11:13.624Z,90.5
2022-12-11T00:12:23.497Z,90.8
2022-12-11T00:13:33.620Z,91.5
2022-12-11T00:14:43.742Z,92.1
2022-12-11T00:15:53.865Z,92
2022-12-11T00:17:03.971Z,91.3
2022-12-11T00:18:14.091Z,90.6
2022-12-11T00:19:24.216Z,90.3
2022-12-11T00:20:34.580Z,90.6
2022-12-11T00:21:44.453Z,90.8
2022-12-11T00:22:54.570Z,90.8
2022-12-11T00:24:04.927Z,90.7
2022-12-11T00:25:14.819Z,91.7
2022-12-11T00:26:25.057Z,92.5
2022-12-11T00:27:35.178Z,92.9
2022-12-11T00:28:45.295Z,93.4
2022-12-11T00:29:55.652Z,93.9
2022-12-11T00:31:05.766Z,94.1
2022-12-11T00:32:15.656Z,94.2
2022-12-11T00:33:25.782Z,94.1
2022-12-11T00:34:36.125Z,93.9
2022-12-11T00:35:46.011Z,93.7
2022-12-11T00:36:56.141Z,93.7
2022-12-11T00:38:06.244Z,93.6
2022-12-11T00:39:16.365Z,93.2
2022-12-11T00:40:26.000Z,92.7
2022-12-11T00:41:35.867Z,92.3
2022-12-11T00:42:45.979Z,91.9
2022-12-11T00:43:56.107Z,92
2022-12-11T00:45:06.222Z,92.3
2022-12-11T00:46:16.336Z,92.3
2022-12-11T00:47:26.218Z,93
2022-12-11T00:48:36.343Z,93.5
2022-12-11T00:49:46.464Z,93.8
2022-12-11T00:50:56.589Z,93.8
2022-12-11T00:52:06.694Z,93.5
2022-12-11T00:53:16.819Z,93.4
2022-12-11T00:54:26.941Z,93.8
2022-12-11T00:55:37.298Z,93.9
2022-12-11T00:56:47.294Z,93.9
2022-12-11T00:57:57.409Z,93.9
2022-12-11T00:59:07.546Z,94.1
2022-12-11T01:00:17.895Z,94.1
2022-12-11T01:01:27.778Z,93.6
2022-12-11T01:02:37.906Z,93.1
2022-12-11T01:03:48.024Z,92.5
2022-12-11T01:04:58.145Z,92.1
2022-12-11T01:06:08.247Z,92.3
2022-12-11T01:07:18.370Z,93
2022-12-11T01:08:28.493Z,93.4
2022-12-11T01:09:38.607Z,93.1
2022-12-11T01:10:48.735Z,92.8
2022-12-11T01:11:57.864Z,92.7
2022-12-11T01:13:08.222Z,92.6
2022-12-11T01:14:18.113Z,92.8
2022-12-11T01:15:28.220Z,93.2
2022-12-11T01:16:38.350Z,93.2
2022-12-11T01:17:48.458Z,93.1
2022-12-11T01:20:08.935Z,92.7
2022-12-11T01:21:18.816Z,92.7
2022-12-11T01:22:28.938Z,93.2
2022-12-11T01:23:39.056Z,93.3
2022-12-11T01:24:49.184Z,94
2022-12-11T01:25:59.311Z,94.2
2022-12-11T01:27:08.668Z,95.5
2022-12-11T01:28:18.562Z,95.6
2022-12-11T01:29:28.670Z,95.1
2022-12-11T01:30:39.028Z,95.2
2022-12-11T01:31:48.915Z,94.8
2022-12-11T01:32:59.270Z,94.6
2022-12-11T01:34:09.146Z,94.4
2022-12-11T01:35:19.272Z,94.4
2022-12-11T01:36:29.392Z,94.1
2022-12-11T01:37:39.511Z,93.7
2022-12-11T01:38:49.637Z,94
2022-12-11T01:39:59.980Z,94
2022-12-11T01:41:10.100Z,94.2
2022-12-11T01:42:19.236Z,94.4
2022-12-11T01:43:29.118Z,94.5
2022-12-11T01:44:39.237Z,94.6
2022-12-11T01:45:49.604Z,94.6
2022-12-11T01:46:59.488Z,94.5
2022-12-11T01:48:09.833Z,94.5
2022-12-11T01:49:19.723Z,95.2
2022-12-11T01:50:29.849Z,95.6
2022-12-11T01:51:39.952Z,95.3
2022-12-11T01:52:50.071Z,94.7
2022-12-11T01:54:00.436Z,94.4
2022-12-11T01:55:10.547Z,94.2
2022-12-11T01:56:20.429Z,94
2022-12-11T01:57:29.566Z,93.9
2022-12-11T01:58:39.690Z,93.7
2022-12-11T01:59:49.817Z,94.4
2022-12-11T02:00:59.925Z,95
2022-12-11T02:02:10.285Z,95.1
2022-12-11T02:03:20.161Z,95.2
2022-12-11T02:04:30.284Z,95
2022-12-11T02:05:40.405Z,94.6
2022-12-11T02:08:00.883Z,94.6
2022-12-11T02:09:10.759Z,94.9
2022-12-11T02:10:20.885Z,95.2
2022-12-11T02:11:31.005Z,95.3
2022-12-11T02:12:40.139Z,95.4
2022-12-11T02:13:50.261Z,95.1
2022-12-11T02:15:00.387Z,94.7
2022-12-11T02:16:10.490Z,94.3
2022-12-11T02:17:20.862Z,94.1
2022-12-11T02:18:30.737Z,94
2022-12-11T02:19:41.095Z,94.1
2022-12-11T02:20:50.984Z,94.1
2022-12-11T02:22:01.101Z,93.8
2022-12-11T02:23:11.442Z,93.4
2022-12-11T02:24:21.341Z,93.3
2022-12-11T02:25:31.448Z,93.4
2022-12-11T02:26:41.568Z,93.7
2022-12-11T02:27:50.702Z,93.9
2022-12-11T02:29:01.064Z,94.1
2022-12-11T02:30:11.182Z,93.9
2022-12-11T02:31:21.072Z,93.8
2022-12-11T02:32:31.414Z,93.9
2022-12-11T02:33:41.303Z,93.8
2022-12-11T02:34:51.424Z,93.9
2022-12-11T02:36:01.546Z,94
2022-12-11T02:37:11.895Z,94.1
2022-12-11T02:38:22.015Z,94.1
2022-12-11T02:39:32.132Z,94.1
2022-12-11T02:40:42.248Z,93.9
2022-12-11T02:41:52.130Z,93.8
2022-12-11T02:43:01.265Z,93.9
2022-12-11T02:44:11.389Z,94.3
2022-12-11T02:45:21.514Z,94.5
2022-12-11T02:46:31.634Z,94.4
2022-12-11T02:47:41.752Z,94.6
2022-12-11T02:48:51.866Z,94.8
2022-12-11T02:50:01.982Z,95.1
2022-12-11T02:51:12.115Z,95.3
2022-12-11T02:52:22.230Z,95.6
2022-12-11T02:53:32.348Z,95.6
2022-12-11T02:54:42.702Z,95.5
2022-12-11T02:55:52.582Z,95.5
2022-12-11T02:57:02.710Z,95.3
2022-12-11T02:58:12.087Z,95.1
2022-12-11T02:59:21.956Z,94.9
2022-12-11T03:00:32.076Z,94.7
2022-12-11T03:01:42.202Z,94.4
2022-12-11T03:02:52.320Z,94.4
2022-12-11T03:04:02.678Z,94.4
2022-12-11T03:05:12.552Z,94.4
2022-12-11T03:06:22.909Z,94.5
2022-12-11T03:07:32.789Z,94.6
2022-12-11T03:08:42.911Z,94.5
2022-12-11T03:09:53.031Z,94.5
2022-12-11T03:11:03.153Z,94.3
2022-12-11T03:12:13.263Z,94.4
2022-12-11T03:13:22.397Z,94.5
2022-12-11T03:14:32.529Z,94.6
2022-12-11T03:15:42.876Z,94.6
2022-12-11T03:16:52.773Z,94.6
2022-12-11T03:18:03.116Z,94.6
2022-12-11T03:19:13.236Z,94.7
2022-12-11T03:20:23.129Z,94.6
2022-12-11T03:21:33.250Z,94.7
2022-12-11T03:22:43.369Z,94.7
2022-12-11T03:23:53.476Z,94.5
2022-12-11T03:25:03.603Z,94.6
2022-12-11T03:26:13.724Z,94.7
2022-12-11T03:27:24.071Z,95
2022-12-11T03:28:32.980Z,95.2
2022-12-11T03:29:43.083Z,95.4
2022-12-11T03:30:53.206Z,95.5
2022-12-11T03:32:03.331Z,95.2
2022-12-11T03:33:13.441Z,95
2022-12-11T03:34:23.561Z,94.9
2022-12-11T03:35:32.718Z,95
2022-12-11T03:36:42.825Z,95
2022-12-11T03:37:52.942Z,95.2
2022-12-11T03:39:03.296Z,95.3
2022-12-11T03:40:13.187Z,94.8
2022-12-11T03:41:23.537Z,95.2
2022-12-11T03:42:33.429Z,95.2
2022-12-11T03:43:43.780Z,95
2022-12-11T03:44:53.655Z,94.9
2022-12-11T03:46:03.777Z,94.9
2022-12-11T03:47:14.132Z,95
2022-12-11T03:48:24.254Z,94.9
2022-12-11T03:49:34.139Z,95
2022-12-11T03:50:43.500Z,94.9
2022-12-11T03:51:53.395Z,95
2022-12-11T03:53:03.746Z,94.9
2022-12-11T03:54:13.618Z,94.8
2022-12-11T03:55:23.725Z,94.7
2022-12-11T03:56:33.860Z,94.5
2022-12-11T03:57:44.210Z,94.3
2022-12-11T03:58:54.108Z,94.3
2022-12-11T04:00:04.215Z,94.4
2022-12-11T04:01:14.568Z,94.7
2022-12-11T04:02:24.702Z,94.9
2022-12-11T04:03:34.586Z,95
2022-12-11T04:04:44.700Z,95.2
2022-12-11T04:05:53.830Z,95.5
2022-12-11T04:07:03.957Z,95.3
2022-12-11T04:08:14.074Z,95.1
2022-12-11T04:09:24.190Z,94.8
2022-12-11T04:10:34.317Z,94.7
2022-12-11T04:11:44.424Z,94.4
2022-12-11T04:12:54.542Z,94.2
2022-12-11T04:14:04.662Z,94.1
2022-12-11T04:15:14.780Z,94.4
2022-12-11T04:16:24.904Z,94.4
2022-12-11T04:17:35.025Z,94.3
2022-12-11T04:18:45.143Z,93.8
2022-12-11T04:19:55.267Z,94.1
2022-12-11T04:21:04.406Z,94.3
2022-12-11T04:22:14.508Z,94.5
2022-12-11T04:23:24.630Z,94.4
2022-12-11T04:24:34.752Z,94.2
2022-12-11T04:25:44.872Z,94.1
2022-12-11T04:28:05.113Z,94.4
2022-12-11T04:29:15.220Z,94.3
2022-12-11T04:30:25.342Z,94.2
2022-12-11T04:31:35.464Z,94.2
2022-12-11T04:32:45.581Z,94.3
2022-12-11T04:33:55.704Z,94.8
2022-12-11T04:35:06.050Z,95
2022-12-11T04:36:14.952Z,95.2
2022-12-11T04:37:25.074Z,95.3
2022-12-11T04:38:35.197Z,95.2
2022-12-11T04:39:45.323Z,94.9
2022-12-11T04:40:55.425Z,94.7
2022-12-11T04:42:05.555Z,94.8
2022-12-11T04:43:15.677Z,94.5
2022-12-11T04:44:25.799Z,94.4
2022-12-11T04:45:35.905Z,94.4
2022-12-11T04:46:46.267Z,94.4
2022-12-11T04:47:56.156Z,94.4
2022-12-11T04:49:06.505Z,94.1
2022-12-11T04:50:16.617Z,94.3
2022-12-11T04:51:25.531Z,94.4
2022-12-11T04:52:35.633Z,94.3
2022-12-11T04:53:45.761Z,94.4
2022-12-11T04:54:56.117Z,94.3
2022-12-11T04:56:05.989Z,94.4
2022-12-11T04:57:16.115Z,94.7
2022-12-11T04:58:26.462Z,94.8
2022-12-11T04:59:36.358Z,95
2022-12-11T05:00:46.707Z,94.8
2022-12-11T05:01:56.587Z,94.3
2022-12-11T05:03:06.945Z,94.5
2022-12-11T05:04:17.064Z,94.6
2022-12-11T05:05:26.939Z,94.6
2022-12-11T05:06:36.093Z,95
2022-12-11T05:07:46.204Z,95.1
2022-12-11T05:08:56.324Z,95.1
2022-12-11T05:10:06.440Z,94.9
2022-12-11T05:11:16.566Z,94.8
2022-12-11T05:12:26.909Z,94.9
2022-12-11T05:13:36.794Z,94.8
2022-12-11T05:14:47.145Z,94.9
2022-12-11T05:15:57.037Z,94.9
2022-12-11T05:17:07.378Z,95.1
2022-12-11T05:18:17.498Z,95
2022-12-11T05:19:27.392Z,94.7
2022-12-11T05:20:37.515Z,94.4
2022-12-11T05:21:46.875Z,94.4
2022-12-11T05:22:56.759Z,94.2
2022-12-11T05:24:06.875Z,94.5
2022-12-11T05:25:16.994Z,94.7
2022-12-11T05:26:27.111Z,94.7
2022-12-11T05:27:37.239Z,94.7
2022-12-11T05:28:47.359Z,94.7
2022-12-11T05:29:57.476Z,94.7
2022-12-11T05:31:07.828Z,94.5
2022-12-11T05:32:17.717Z,94.3
2022-12-11T05:33:27.837Z,94.4
2022-12-11T05:34:37.955Z,94.3
2022-12-11T05:35:48.322Z,94.5
2022-12-11T05:38:07.555Z,94.9
2022-12-11T05:39:17.447Z,95.4
2022-12-11T05:40:27.792Z,95.5
2022-12-11T05:41:37.684Z,95.7
2022-12-11T05:42:47.796Z,95.6
2022-12-11T05:43:57.913Z,95.5
2022-12-11T05:45:08.031Z,95.4
2022-12-11T05:46:18.155Z,95.7
2022-12-11T05:47:28.505Z,95.8
2022-12-11T05:48:38.400Z,95.5
2022-12-11T05:49:48.518Z,95.8
2022-12-11T05:50:58.631Z,95.8
2022-12-11T05:52:07.763Z,95.7
2022-12-11T05:53:17.889Z,95.5
2022-12-11T05:54:28.007Z,95.4
2022-12-11T05:55:38.117Z,95.3
2022-12-11T05:56:48.244Z,95.2
2022-12-11T05:57:58.368Z,95.3
2022-12-11T05:59:08.476Z,95.3
2022-12-11T06:00:18.830Z,95.2
2022-12-11T06:01:28.948Z,95.1
2022-12-11T06:02:38.843Z,94.8
2022-12-11T06:03:49.193Z,94.8
2022-12-11T06:04:59.075Z,94.6
2022-12-11T06:06:09.195Z,94.7
2022-12-11T06:07:18.340Z,94.6
2022-12-11T06:08:28.678Z,94.8
2022-12-11T06:09:38.564Z,94.6
2022-12-11T06:10:48.683Z,94.6
2022-12-11T06:11:58.810Z,94.5
2022-12-11T06:13:09.159Z,94.6
2022-12-11T06:14:19.040Z,94.6
2022-12-11T06:15:29.395Z,94.5
2022-12-11T06:16:39.276Z,94.5
2022-12-11T06:17:49.625Z,94.3
2022-12-11T06:18:59.511Z,94.5
2022-12-11T06:20:09.629Z,94.3
2022-12-11T06:21:19.751Z,94.3
2022-12-11T06:22:29.127Z,94.3
2022-12-11T06:23:39.007Z,94.5
2022-12-11T06:24:49.359Z,94.5
2022-12-11T06:25:59.241Z,94.2
2022-12-11T06:27:09.364Z,94.5
2022-12-11T06:28:19.488Z,94.3
2022-12-11T06:29:29.837Z,94.2
2022-12-11T06:30:39.699Z,94.4
2022-12-11T06:31:49.847Z,94.3
2022-12-11T06:32:59.956Z,94.4
2022-12-11T06:34:10.075Z,94.2
2022-12-11T06:35:20.198Z,94.3
2022-12-11T06:36:30.319Z,94.3
2022-12-11T06:37:39.449Z,94.1
2022-12-11T06:38:49.572Z,94.1
2022-12-11T06:41:10.037Z,94
2022-12-11T06:42:19.936Z,94.2
2022-12-11T06:43:30.058Z,94.1
2022-12-11T06:44:40.159Z,94.5
2022-12-11T06:45:50.282Z,94.4
2022-12-11T06:47:00.400Z,94.4
2022-12-11T06:48:10.528Z,94.2
2022-12-11T06:49:20.652Z,94.3
2022-12-11T06:50:30.755Z,94.3
2022-12-11T06:51:40.880Z,94.2
2022-12-11T06:52:50.007Z,93.8
2022-12-11T06:54:00.145Z,93.5
2022-12-11T06:55:10.257Z,93.6
2022-12-11T06:56:20.367Z,93.8
2022-12-11T06:57:30.483Z,93.6
2022-12-11T06:58:40.607Z,93.4
2022-12-11T06:59:50.960Z,93.4
2022-12-11T07:01:00.859Z,93.6
2022-12-11T07:02:10.961Z,93.8
2022-12-11T07:03:21.087Z,93.6
2022-12-11T07:04:31.439Z,93.4
2022-12-11T07:05:41.330Z,93.2
2022-12-11T07:06:51.669Z,93
2022-12-11T07:08:00.586Z,92.9
2022-12-11T07:09:10.923Z,92.9
2022-12-11T07:10:20.807Z,93.4
2022-12-11T07:11:31.178Z,94
2022-12-11T07:12:41.048Z,94.7
2022-12-11T07:13:51.177Z,95.2
2022-12-11T07:15:01.285Z,95.7
2022-12-11T07:16:11.409Z,96
2022-12-11T07:17:21.756Z,96.2
2022-12-11T07:18:31.880Z,96.2
2022-12-11T07:19:41.759Z,96.3
2022-12-11T07:20:51.877Z,96.5
2022-12-11T07:22:01.000Z,96.6
2022-12-11T07:23:11.141Z,96.6
2022-12-11T07:24:21.259Z,96.5
2022-12-11T07:25:31.605Z,96.5
2022-12-11T07:26:41.486Z,96.6
2022-12-11T07:27:51.841Z,96.5
2022-12-11T07:29:01.743Z,96.6
2022-12-11T07:30:10.870Z,96.6
2022-12-11T07:31:21.220Z,96.3
2022-12-11T07:32:31.106Z,96.1
2022-12-11T07:33:41.234Z,96.3
2022-12-11T07:34:51.339Z,96.5
2022-12-11T07:36:01.464Z,96.5
2022-12-11T07:37:11.816Z,96.2
2022-12-11T07:38:21.715Z,96.1
2022-12-11T07:39:32.046Z,96.2
2022-12-11T07:40:41.923Z,96
2022-12-11T07:41:52.283Z,95.9
2022-12-11T07:43:02.188Z,96
2022-12-11T07:44:12.297Z,96.1
2022-12-11T07:45:21.436Z,96
2022-12-11T07:46:31.543Z,96.1
2022-12-11T07:47:41.671Z,96
2022-12-11T07:48:52.035Z,96.3
2022-12-11T07:51:12.018Z,96.4
2022-12-11T07:52:22.143Z,96.4
2022-12-11T07:53:32.271Z,96.5
2022-12-11T07:54:42.392Z,96.5
2022-12-11T07:55:52.497Z,96.4
2022-12-11T07:57:02.613Z,96.5
2022-12-11T07:58:12.967Z,96.3
2022-12-11T07:59:22.853Z,96.2
2022-12-11T08:00:31.986Z,96
2022-12-11T08:01:42.117Z,96
2022-12-11T08:02:52.454Z,95.9
2022-12-11T08:04:02.358Z,95.7
2022-12-11T08:05:12.691Z,95.8
2022-12-11T08:06:22.593Z,95.5
2022-12-11T08:07:32.699Z,95.7
2022-12-11T08:08:42.000Z,95.7
2022-12-11T08:09:52.938Z,95.5
2022-12-11T08:12:13.411Z,95.8
2022-12-11T08:13:23.302Z,95.8
2022-12-11T08:14:33.642Z,95.9
2022-12-11T08:15:42.559Z,95.8
2022-12-11T08:16:52.682Z,95.3
2022-12-11T08:18:02.789Z,94.2
2022-12-11T08:19:13.133Z,93.7
2022-12-11T08:20:23.033Z,93.3
2022-12-11T08:21:33.151Z,93.1
2022-12-11T08:22:43.274Z,93.1
2022-12-11T08:23:53.379Z,93
2022-12-11T08:25:03.497Z,92.6
2022-12-11T08:26:13.622Z,92.3
2022-12-11T08:27:23.741Z,92.1
2022-12-11T08:28:33.857Z,92.4
2022-12-11T08:29:43.984Z,92.3
2022-12-11T08:30:53.339Z,93.4
2022-12-11T08:32:03.242Z,94
2022-12-11T08:33:13.586Z,94.3
2022-12-11T08:34:23.464Z,95
2022-12-11T08:35:33.811Z,95.3
2022-12-11T08:36:43.711Z,95.5
2022-12-11T08:37:54.060Z,95.7
2022-12-11T08:39:03.955Z,95.8
2022-12-11T08:40:14.037Z,95.8
2022-12-11T08:41:24.193Z,95.9
2022-12-11T08:42:34.295Z,95.9
2022-12-11T08:43:44.416Z,96
2022-12-11T08:44:54.762Z,96.2
2022-12-11T08:46:03.683Z,96.2
2022-12-11T08:47:13.789Z,96.1
2022-12-11T08:48:23.911Z,96.2
2022-12-11T08:49:34.253Z,96.4
2022-12-11T08:50:44.151Z,96.5
2022-12-11T08:51:54.494Z,96.6
2022-12-11T08:53:04.394Z,96.5
2022-12-11T08:54:14.517Z,96.5
2022-12-11T08:55:24.626Z,96.6
2022-12-11T08:56:34.740Z,96.6
2022-12-11T08:57:44.857Z,96.4
2022-12-11T08:58:55.213Z,96.1
2022-12-11T09:01:15.210Z,96.1
2022-12-11T09:02:25.464Z,96.4
2022-12-11T09:03:35.547Z,96.5
2022-12-11T09:04:45.698Z,96.5
2022-12-11T09:05:56.042Z,96.5
2022-12-11T09:07:05.941Z,96.5
2022-12-11T09:08:16.064Z,96.4
2022-12-11T09:09:26.182Z,96.5
2022-12-11T09:10:36.514Z,96.5
2022-12-11T09:11:46.402Z,96.5
2022-12-11T09:12:56.754Z,96.5
2022-12-11T09:14:06.642Z,96.6
2022-12-11T09:15:16.770Z,96.5
2022-12-11T09:16:26.878Z,96.5
2022-12-11T09:17:36.246Z,96.4
2022-12-11T09:18:46.131Z,96.6
2022-12-11T09:19:56.262Z,96.6
2022-12-11T09:21:06.384Z,96.5
2022-12-11T09:22:16.720Z,96.4
2022-12-11T09:23:26.623Z,96.4
2022-12-11T09:24:36.962Z,96
2022-12-11T09:25:46.846Z,96
2022-12-11T09:26:56.964Z,96
2022-12-11T09:28:07.081Z,96
2022-12-11T09:29:17.201Z,96
2022-12-11T09:30:27.334Z,95.9
2022-12-11T09:31:37.455Z,95.7
2022-12-11T09:32:46.573Z,95.8
2022-12-11T09:33:56.928Z,95.7
2022-12-11T09:35:06.829Z,95.6
2022-12-11T09:36:16.935Z,95.5
2022-12-11T09:37:27.056Z,95.4
2022-12-11T09:38:37.401Z,95
2022-12-11T09:39:47.303Z,95.3
2022-12-11T09:40:57.632Z,95.1
2022-12-11T09:42:07.526Z,95.2
2022-12-11T09:43:17.869Z,95.4
2022-12-11T09:44:27.774Z,95.2
2022-12-11T09:45:38.115Z,95
2022-12-11T09:46:48.012Z,95.1
2022-12-11T09:47:57.370Z,95.2
2022-12-11T09:49:07.263Z,95.3
2022-12-11T09:50:17.381Z,95.2
2022-12-11T09:51:27.719Z,95.3
2022-12-11T09:52:37.608Z,95.4
2022-12-11T09:53:47.731Z,95.8
2022-12-11T09:54:58.078Z,96.1
2022-12-11T09:56:07.973Z,96.3
2022-12-11T09:57:18.326Z,96.4
2022-12-11T09:58:28.209Z,96.3
2022-12-11T09:59:38.330Z,96.5
2022-12-11T10:00:48.456Z,96.6
2022-12-11T10:01:58.791Z,96.6
2022-12-11T10:03:07.694Z,96.6
2022-12-11T10:04:18.041Z,96.6
2022-12-11T10:05:27.949Z,96.5
2022-12-11T10:06:38.296Z,96.7
2022-12-11T10:07:48.169Z,96.7
2022-12-11T10:08:58.287Z,96.7
2022-12-11T10:10:08.409Z,97
2022-12-11T10:11:18.753Z,97.2
2022-12-11T10:12:28.652Z,97.2
2022-12-11T10:13:38.996Z,97.2
2022-12-11T10:14:48.892Z,97.2
2022-12-11T10:15:59.230Z,97.3
2022-12-11T10:17:09.124Z,97.2
2022-12-11T10:18:18.490Z,97.2
2022-12-11T10:19:28.606Z,97.1
2022-12-11T10:20:38.727Z,97
2022-12-11T10:21:48.610Z,96.9
2022-12-11T10:22:58.731Z,96.8
2022-12-11T10:24:08.849Z,96.7
2022-12-11T10:25:18.968Z,96.5
2022-12-11T10:26:29.094Z,96.5
2022-12-11T10:27:39.215Z,96.5
2022-12-11T10:28:49.328Z,96.5
2022-12-11T10:29:59.452Z,96.7
2022-12-11T10:31:09.562Z,96.7
2022-12-11T10:32:19.683Z,96.5
2022-12-11T10:33:28.834Z,96.2
2022-12-11T10:34:39.170Z,96.1
2022-12-11T10:35:49.073Z,95.9
2022-12-11T10:36:59.183Z,96.1
2022-12-11T10:39:19.646Z,95.9
2022-12-11T10:40:29.540Z,95.9
2022-12-11T10:41:39.888Z,95.8
2022-12-11T10:42:49.769Z,95.9
2022-12-11T10:43:59.888Z,95.9
2022-12-11T10:45:10.008Z,95.7
2022-12-11T10:46:20.354Z,95.7
2022-12-11T10:47:30.246Z,95.7
2022-12-11T10:48:39.377Z,95.8
2022-12-11T10:49:49.497Z,95.6
2022-12-11T10:50:59.844Z,95.8
2022-12-11T10:52:09.743Z,95.8
2022-12-11T10:53:20.082Z,95.9
2022-12-11T10:54:29.983Z,95.8
2022-12-11T10:55:40.329Z,95.7
2022-12-11T10:56:50.220Z,95.8
2022-12-11T10:58:00.561Z,95.7
2022-12-11T10:59:10.460Z,95.7
2022-12-11T11:00:20.574Z,95.6
2022-12-11T11:01:30.692Z,95.6
2022-12-11T11:02:41.038Z,95.6
2022-12-11T11:03:51.060Z,95.4
2022-12-11T11:05:01.161Z,95.5
2022-12-11T11:06:11.281Z,95.5
2022-12-11T11:07:21.628Z,95.4
2022-12-11T11:08:31.525Z,95.4
2022-12-11T11:09:41.869Z,95.3
2022-12-11T11:10:51.767Z,95.5
2022-12-11T11:12:02.113Z,95.2
2022-12-11T11:13:12.008Z,95.2
2022-12-11T11:14:22.359Z,95.3
2022-12-11T11:15:32.466Z,95.4
2022-12-11T11:16:42.367Z,95.4
2022-12-11T11:17:52.470Z,95.4
2022-12-11T11:19:01.847Z,95.2
2022-12-11T11:20:10.755Z,95.2
2022-12-11T11:21:21.101Z,95.4
2022-12-11T11:22:31.001Z,95.5
2022-12-11T11:23:41.332Z,95.6
2022-12-11T11:24:50.250Z,95.7
2022-12-11T11:26:00.363Z,95.8
2022-12-11T11:28:20.606Z,95.8
2022-12-11T11:29:30.726Z,95.9
2022-12-11T11:30:41.068Z,95.9
2022-12-11T11:31:50.975Z,96.1
2022-12-11T11:33:01.094Z,96.2
2022-12-11T11:34:11.197Z,96.5
2022-12-11T11:35:21.313Z,96.9
2022-12-11T11:36:31.433Z,97.2
2022-12-11T11:37:41.779Z,97.5
2022-12-11T11:38:51.680Z,97.8
2022-12-11T11:40:01.040Z,98.1
2022-12-11T11:41:10.934Z,98.4
2022-12-11T11:42:21.278Z,98.4
2022-12-11T11:43:31.178Z,98.5
2022-12-11T11:44:41.504Z,98.6
2022-12-11T11:45:51.409Z,98.7
2022-12-11T11:47:01.532Z,98.8
2022-12-11T11:48:11.649Z,99
2022-12-11T11:49:21.979Z,99.1
2022-12-11T11:50:32.103Z,99.2
2022-12-11T11:51:42.229Z,99.3
2022-12-11T11:52:52.119Z,99.5
2022-12-11T11:54:02.459Z,99.8
2022-12-11T11:55:11.371Z,99.8
2022-12-11T11:56:21.494Z,100
2022-12-11T11:57:31.604Z,99.8
2022-12-11T11:58:41.723Z,99.8
2022-12-11T11:59:51.852Z,99.8
2022-12-11T12:01:01.959Z,100
2022-12-11T12:02:12.085Z,100
2022-12-11T12:03:22.211Z,100
2022-12-11T12:04:32.316Z,100
2022-12-11T12:05:42.449Z,100
2022-12-11T12:06:52.554Z,100
2022-12-11T12:08:02.682Z,100
2022-12-11T12:09:12.805Z,100
2022-12-11T12:10:21.939Z,100
2022-12-11T12:11:32.049Z,100
2022-12-11T12:12:42.170Z,100
2022-12-11T12:13:52.292Z,100
2022-12-11T12:15:02.401Z,100
2022-12-11T12:16:12.529Z,100
2022-12-11T12:17:22.656Z,100
2022-12-11T12:18:32.760Z,100
2022-12-11T12:19:42.880Z,100
2022-12-11T12:20:52.999Z,100
2022-12-11T12:22:03.129Z,100
2022-12-11T12:23:13.249Z,100
2022-12-11T12:24:23.368Z,100
2022-12-11T12:25:32.504Z,100
2022-12-11T12:26:42.612Z,100
2022-12-11T12:27:52.735Z,100
2022-12-11T12:29:02.859Z,100
2022-12-11T12:30:12.971Z,100
2022-12-11T12:31:23.084Z,100
2022-12-11T12:32:33.216Z,100
2022-12-11T12:33:43.336Z,100
2022-12-11T12:34:53.452Z,100
2022-12-11T12:36:03.572Z,100
2022-12-11T12:37:13.675Z,100
2022-12-11T12:38:23.794Z,100
2022-12-11T12:39:33.917Z,100
2022-12-11T12:40:43.048Z,100
2022-12-11T12:41:53.178Z,100
2022-12-11T12:43:03.509Z,100
2022-12-11T12:44:13.403Z,100
2022-12-11T12:45:23.534Z,100
2022-12-11T12:46:33.643Z,100
2022-12-11T12:47:43.760Z,100
2022-12-11T12:48:53.884Z,100
2022-12-11T12:50:04.000Z,100
2022-12-11T12:51:14.123Z,100
2022-12-11T12:52:24.465Z,100
2022-12-11T12:53:34.354Z,100
2022-12-11T12:54:44.483Z,100
2022-12-11T12:55:53.612Z,100
2022-12-11T12:57:03.730Z,100
2022-12-11T12:58:13.849Z,100
2022-12-11T12:59:23.969Z,100
2022-12-11T13:00:34.095Z,100
2022-12-11T13:01:44.204Z,100
2022-12-11T13:02:54.331Z,100
2022-12-11T13:04:04.674Z,100
2022-12-11T13:05:14.555Z,100
2022-12-11T13:06:24.898Z,100
2022-12-11T13:07:34.806Z,100
2022-12-11T13:08:44.899Z,100
2022-12-11T13:09:55.034Z,100
2022-12-11T13:11:04.183Z,100
2022-12-11T13:12:14.290Z,100
2022-12-11T13:13:24.410Z,100
2022-12-11T13:14:34.529Z,100
2022-12-11T13:15:44.877Z,100
2022-12-11T13:16:54.777Z,100
2022-12-11T13:18:05.111Z,100
2022-12-11T13:19:14.999Z,100
2022-12-11T13:20:25.119Z,100
2022-12-11T13:21:35.244Z,100
2022-12-11T13:22:45.368Z,100
2022-12-11T13:23:55.485Z,100
2022-12-11T13:25:05.609Z,100
2022-12-11T13:26:14.744Z,100
2022-12-11T13:27:24.846Z,100
2022-12-11T13:28:34.971Z,100
2022-12-11T13:29:45.312Z,100
2022-12-11T13:30:55.211Z,100
2022-12-11T13:32:05.339Z,100
2022-12-11T13:33:15.442Z,100
2022-12-11T13:34:25.781Z,100
2022-12-11T13:35:35.683Z,100
2022-12-11T13:36:45.808Z,100
2022-12-11T13:37:56.145Z,100
2022-12-11T13:40:16.169Z,100
2022-12-11T13:41:25.512Z,99.9
2022-12-11T13:42:35.423Z,99.5
2022-12-11T13:43:45.532Z,99.7
2022-12-11T13:44:55.891Z,99.7
2022-12-11T13:46:05.991Z,99.7
2022-12-11T13:47:15.886Z,99.4
2022-12-11T13:48:26.001Z,99.5
2022-12-11T13:49:36.343Z,99.6
2022-12-11T13:50:46.472Z,99.8
2022-12-11T13:51:56.580Z,99.7
2022-12-11T13:53:06.478Z,99.5
2022-12-11T13:54:16.610Z,99.5
2022-12-11T13:55:26.937Z,99.4
2022-12-11T13:56:35.864Z,99.4
2022-12-11T13:57:46.198Z,99.4
2022-12-11T13:58:56.313Z,99.3
2022-12-11T14:00:06.205Z,99.2
2022-12-11T14:01:16.333Z,99.5
2022-12-11T14:02:26.440Z,99.6
2022-12-11T14:03:36.796Z,99.7
2022-12-11T14:04:46.682Z,99.6
2022-12-11T14:05:56.807Z,99.5
2022-12-11T14:07:06.915Z,99.6
2022-12-11T14:08:17.051Z,99.5
2022-12-11T14:09:27.154Z,99.7
2022-12-11T14:10:37.503Z,99.9
2022-12-11T14:11:46.422Z,99.9
2022-12-11T14:12:56.761Z,100
2022-12-11T14:14:06.870Z,100
2022-12-11T14:15:16.763Z,100
2022-12-11T14:16:27.104Z,100
2022-12-11T14:17:37.238Z,100
2022-12-11T14:18:47.350Z,100
2022-12-11T14:19:57.464Z,100
2022-12-11T14:21:07.580Z,100
2022-12-11T14:22:17.482Z,100
2022-12-11T14:23:27.609Z,100
2022-12-11T14:24:37.943Z,100
2022-12-11T14:25:47.833Z,100
2022-12-11T14:26:57.191Z,100
2022-12-11T14:28:07.311Z,100
2022-12-11T14:29:17.207Z,100
2022-12-11T14:30:27.328Z,100
2022-12-11T14:31:37.443Z,100
2022-12-11T14:32:47.791Z,100
2022-12-11T14:33:57.691Z,100
2022-12-11T14:35:07.814Z,100
2022-12-11T14:37:28.042Z,100
2022-12-11T14:38:38.164Z,100
2022-12-11T14:39:48.498Z,100
2022-12-11T14:40:58.616Z,100
2022-12-11T14:42:07.530Z,100
2022-12-11T14:43:17.660Z,100
2022-12-11T14:44:27.771Z,100
2022-12-11T14:45:37.899Z,99.9
2022-12-11T14:46:48.233Z,99.9
2022-12-11T14:47:58.121Z,99.8
2022-12-11T14:49:08.243Z,99.8
2022-12-11T14:50:18.366Z,100
2022-12-11T14:51:28.705Z,100
2022-12-11T14:52:38.823Z,100
2022-12-11T14:53:48.717Z,100
2022-12-11T14:54:58.842Z,100
2022-12-11T14:56:09.179Z,100
2022-12-11T14:57:18.098Z,100
2022-12-11T14:58:28.213Z,100
2022-12-11T14:59:38.548Z,100
2022-12-11T15:00:48.675Z,100
2022-12-11T15:01:58.790Z,100
2022-12-11T15:03:08.699Z,100
2022-12-11T15:04:18.817Z,100
2022-12-11T15:05:28.925Z,100
2022-12-11T15:06:39.054Z,100
2022-12-11T15:07:49.173Z,100
2022-12-11T15:08:59.281Z,100
2022-12-11T15:10:09.406Z,100
2022-12-11T15:11:19.512Z,100
2022-12-11T15:12:28.661Z,100
2022-12-11T15:13:38.779Z,100
2022-12-11T15:14:48.886Z,100
2022-12-11T15:15:59.018Z,100
2022-12-11T15:17:09.130Z,100
2022-12-11T15:18:19.253Z,100
2022-12-11T15:19:28.607Z,100
2022-12-11T15:20:38.725Z,100
2022-12-11T15:21:48.631Z,100
2022-12-11T15:22:58.754Z,100
2022-12-11T15:24:09.079Z,100
2022-12-11T15:25:19.200Z,100
2022-12-11T15:26:29.320Z,100
2022-12-11T15:27:39.445Z,100
2022-12-11T15:28:49.345Z,100
2022-12-11T15:29:59.449Z,100
2022-12-11T15:31:09.568Z,100
2022-12-11T15:33:29.805Z,100
2022-12-11T15:34:39.169Z,100
2022-12-11T15:35:49.065Z,100
2022-12-11T15:36:59.186Z,100
2022-12-11T15:38:09.306Z,100
2022-12-11T15:39:19.429Z,100
2022-12-11T15:40:29.537Z,100
2022-12-11T15:41:39.880Z,100
2022-12-11T15:42:50.012Z,100
2022-12-11T15:43:59.908Z,100
2022-12-11T15:45:10.012Z,100
2022-12-11T15:46:20.137Z,100
2022-12-11T15:47:30.481Z,100
2022-12-11T15:48:40.380Z,100
2022-12-11T15:49:49.729Z,100
2022-12-11T15:50:59.626Z,100
2022-12-11T15:52:09.747Z,100
2022-12-11T15:53:19.867Z,100
2022-12-11T15:54:30.210Z,100
2022-12-11T15:55:40.108Z,100
2022-12-11T15:56:50.230Z,100
2022-12-11T15:58:00.565Z,100